createdAt,value
2022-12-28T00:02:18.387Z,7.78
2022-12-28T00:07:17.987Z,8.75
2022-12-28T00:12:16.162Z,9.07
2022-12-28T00:17:14.371Z,11.40
2022-12-28T00:22:12.618Z,8.10
2022-12-28T00:27:12.162Z,8.63
2022-12-28T00:32:10.332Z,9.95
2022-12-28T00:37:12.964Z,8.50
2022-12-28T00:42:12.943Z,7.78
2022-12-28T00:47:11.091Z,6.90
2022-12-28T00:52:10.658Z,10.82
2022-12-28T00:57:08.817Z,9.27
2022-12-28T01:02:08.519Z,11.05
2022-12-28T01:07:06.766Z,11.07
2022-12-28T01:12:05.078Z,6.70
2022-12-28T01:17:03.276Z,7.30
2022-12-28T01:22:03.752Z,10.38
2022-12-28T01:27:01.920Z,7.95
2022-12-28T01:32:00.158Z,11.40
2022-12-28T01:37:00.719Z,7.18
2022-12-28T01:42:00.312Z,6.85
2022-12-28T01:47:01.965Z,6.05
2022-12-28T01:52:01.884Z,9.10
2022-12-28T01:57:01.426Z,11.68
2022-12-28T02:01:59.949Z,6.90
2022-12-28T02:06:58.250Z,8.45
2022-12-28T02:11:56.600Z,6.90
2022-12-28T02:16:56.375Z,7.90
2022-12-28T02:22:02.936Z,7.53
2022-12-28T02:27:02.977Z,8.00
2022-12-28T02:32:05.069Z,4.90
2022-12-28T02:37:07.023Z,6.10
2022-12-28T02:42:05.575Z,4.35
2022-12-28T02:47:22.530Z,4.18
2022-12-28T02:52:22.959Z,8.30
2022-12-28T02:57:25.846Z,5.22
2022-12-28T03:02:40.269Z,11.05
2022-12-28T03:08:01.025Z,4.80
2022-12-28T03:13:01.576Z,5.55
2022-12-28T03:18:25.676Z,4.45
2022-12-28T03:23:41.938Z,6.65
2022-12-28T03:28:58.698Z,7.97
2022-12-28T03:34:06.864Z,4.68
2022-12-28T03:39:17.925Z,7.18
2022-12-28T03:44:20.923Z,12.15
2022-12-28T03:49:20.751Z,7.60
2022-12-28T03:54:19.094Z,6.20
2022-12-28T03:59:18.185Z,5.70
2022-12-28T04:04:22.703Z,6.22
2022-12-28T04:09:22.510Z,8.35
2022-12-28T04:14:21.419Z,7.68
2022-12-28T04:19:22.160Z,27.00
2022-12-28T04:24:20.430Z,8.07
2022-12-28T04:29:19.224Z,28.40
2022-12-28T04:34:34.584Z,5.22
2022-12-28T04:39:55.396Z,4.72
2022-12-28T04:44:55.236Z,4.88
2022-12-28T04:49:54.830Z,4.65
2022-12-28T04:54:52.967Z,7.15
2022-12-28T04:59:51.099Z,7.70
2022-12-28T05:04:51.192Z,5.82
2022-12-28T05:09:50.688Z,5.43
2022-12-28T05:14:49.111Z,5.95
2022-12-28T05:19:47.333Z,8.43
2022-12-28T05:24:45.507Z,12.63
2022-12-28T05:29:44.999Z,9.82
2022-12-28T05:34:43.169Z,8.10
2022-12-28T05:39:41.308Z,13.23
2022-12-28T05:44:39.461Z,7.03
2022-12-28T05:49:38.991Z,9.07
2022-12-28T05:54:37.157Z,4.88
2022-12-28T05:59:35.298Z,7.55
2022-12-28T06:04:33.455Z,6.05
2022-12-28T06:09:33.371Z,5.60
2022-12-28T06:14:31.548Z,5.82
2022-12-28T06:19:29.714Z,6.20
2022-12-28T06:24:27.896Z,5.05
2022-12-28T06:29:27.441Z,6.97
2022-12-28T06:34:25.625Z,6.53
2022-12-28T06:39:23.777Z,7.30
2022-12-28T06:44:21.951Z,6.93
2022-12-28T06:49:21.566Z,7.80
2022-12-28T06:54:19.711Z,9.32
2022-12-28T06:59:17.874Z,7.93
2022-12-28T07:04:16.190Z,10.05
2022-12-28T07:09:17.120Z,8.38
2022-12-28T07:14:15.312Z,6.90
2022-12-28T07:19:13.487Z,10.27
2022-12-28T07:24:11.867Z,9.30
2022-12-28T07:29:11.416Z,6.22
2022-12-28T07:34:09.561Z,9.90
2022-12-28T07:39:07.770Z,6.15
2022-12-28T07:44:06.038Z,6.55
2022-12-28T07:49:05.688Z,10.98
2022-12-28T07:54:04.602Z,9.30
2022-12-28T07:59:03.561Z,9.07
2022-12-28T08:04:04.197Z,9.05
2022-12-28T08:09:04.097Z,5.70
2022-12-28T08:14:03.127Z,6.65
2022-12-28T08:19:01.340Z,5.97
2022-12-28T08:24:00.038Z,12.50
2022-12-28T08:29:00.226Z,9.73
2022-12-28T08:33:59.004Z,9.98
2022-12-28T08:38:57.639Z,6.60
2022-12-28T08:43:56.112Z,7.57
2022-12-28T08:48:56.597Z,8.77
2022-12-28T08:53:54.871Z,15.20
2022-12-28T08:58:53.324Z,16.85
2022-12-28T09:03:52.782Z,9.98
2022-12-28T09:09:05.462Z,6.20
2022-12-28T09:14:05.563Z,8.55
2022-12-28T09:19:04.580Z,9.07
2022-12-28T09:24:04.174Z,8.48
2022-12-28T09:29:03.392Z,18.20
2022-12-28T09:39:24.588Z,7.57
2022-12-28T09:44:36.251Z,6.85
2022-12-28T09:49:36.700Z,7.90
2022-12-28T09:54:36.299Z,11.52
2022-12-28T09:59:35.468Z,7.00
2022-12-28T10:04:33.625Z,16.38
2022-12-28T10:09:34.658Z,22.25
2022-12-28T10:14:36.770Z,8.85
2022-12-28T10:19:34.982Z,10.40
2022-12-28T10:24:33.421Z,11.43
2022-12-28T10:29:32.816Z,10.43
2022-12-28T10:34:34.060Z,20.25
2022-12-28T10:39:34.065Z,9.05
2022-12-28T10:44:42.029Z,14.60
2022-12-28T10:50:02.799Z,9.05
2022-12-28T10:55:27.080Z,7.05
2022-12-28T11:00:26.199Z,12.27
2022-12-28T11:05:26.317Z,7.13
2022-12-28T11:10:25.840Z,10.35
2022-12-28T11:15:25.195Z,10.63
2022-12-28T11:20:26.895Z,7.05
2022-12-28T11:25:29.575Z,9.20
2022-12-28T11:30:28.916Z,6.80
2022-12-28T11:35:30.455Z,12.80
2022-12-28T11:40:48.185Z,13.02
2022-12-28T11:45:52.623Z,8.70
2022-12-28T11:50:55.288Z,40.15
2022-12-28T11:56:01.454Z,9.80
2022-12-28T12:01:00.282Z,9.52
2022-12-28T12:05:59.992Z,8.20
2022-12-28T12:11:12.992Z,6.35
2022-12-28T12:16:19.962Z,9.35
2022-12-28T12:21:29.692Z,9.07
2022-12-28T12:26:30.557Z,18.52
2022-12-28T12:31:31.138Z,19.00
2022-12-28T12:36:44.357Z,12.52
2022-12-28T12:41:46.980Z,22.00
2022-12-28T12:47:05.482Z,15.93
2022-12-28T12:52:13.266Z,21.58
2022-12-28T12:57:14.838Z,13.82
2022-12-28T13:02:28.300Z,11.60
2022-12-28T13:07:28.805Z,25.05
2022-12-28T13:12:27.198Z,24.45
2022-12-28T13:17:25.451Z,31.13
2022-12-28T13:22:31.449Z,17.73
2022-12-28T13:27:32.663Z,39.95
2022-12-28T13:32:37.723Z,22.23
2022-12-28T13:37:38.449Z,9.65
2022-12-28T13:42:40.632Z,31.15
2022-12-28T13:47:40.281Z,64.03
2022-12-28T13:52:41.393Z,39.33
2022-12-28T13:57:51.345Z,45.33
2022-12-28T14:02:54.174Z,82.63
2022-12-28T14:07:54.662Z,57.90
2022-12-28T14:12:53.769Z,39.28
2022-12-28T14:17:53.570Z,31.05
2022-12-28T14:22:53.166Z,48.45
2022-12-28T14:27:57.434Z,34.20
2022-12-28T14:32:56.227Z,37.72
2022-12-28T14:37:57.125Z,60.65
2022-12-28T14:42:55.996Z,84.47
2022-12-28T14:47:57.308Z,41.13
2022-12-28T14:53:06.812Z,42.35
2022-12-28T14:58:07.398Z,45.67
2022-12-28T15:03:16.021Z,37.08
2022-12-28T15:08:17.470Z,34.85
2022-12-28T15:13:15.710Z,69.72
2022-12-28T15:18:14.021Z,40.17
2022-12-28T15:23:12.211Z,49.47
2022-12-28T15:28:11.853Z,51.53
2022-12-28T15:33:10.127Z,76.35
2022-12-28T15:38:08.321Z,56.20
2022-12-28T15:43:06.514Z,65.35
2022-12-28T15:48:06.345Z,45.97
2022-12-28T15:53:04.539Z,86.22
2022-12-28T15:58:02.723Z,78.15
2022-12-28T16:03:00.984Z,55.90
2022-12-28T16:08:00.595Z,66.43
2022-12-28T16:12:58.748Z,109.85
2022-12-28T16:17:57.608Z,85.88
2022-12-28T16:22:56.009Z,77.63
2022-12-28T16:27:55.565Z,106.28
2022-12-28T16:32:53.791Z,77.50
2022-12-28T16:37:52.776Z,73.68
2022-12-28T16:42:50.933Z,71.22
2022-12-28T16:47:50.484Z,64.95
2022-12-28T16:52:48.716Z,42.95
2022-12-28T16:57:46.895Z,27.30
2022-12-28T17:02:45.474Z,30.27
2022-12-28T17:07:45.320Z,25.92
2022-12-28T17:12:43.724Z,19.02
2022-12-28T17:17:42.089Z,18.25
2022-12-28T17:22:40.803Z,12.55
2022-12-28T17:27:40.604Z,17.98
2022-12-28T17:32:38.809Z,21.88
2022-12-28T17:37:37.245Z,19.77
2022-12-28T17:42:35.460Z,14.77
2022-12-28T17:47:35.089Z,11.98
2022-12-28T17:52:33.280Z,13.35
2022-12-28T17:57:36.891Z,14.23
2022-12-28T18:02:38.302Z,26.23
2022-12-28T18:07:36.547Z,31.33
2022-12-28T18:12:34.744Z,34.70
2022-12-28T18:17:33.045Z,21.30
2022-12-28T18:22:32.571Z,13.80
2022-12-28T18:27:30.743Z,11.07
2022-12-28T18:32:29.039Z,12.73
2022-12-28T18:37:27.231Z,22.60
2022-12-28T18:42:26.835Z,51.53
2022-12-28T18:47:25.085Z,19.27
2022-12-28T18:52:23.491Z,14.48
2022-12-28T18:57:21.695Z,25.02
2022-12-28T19:02:21.498Z,22.95
2022-12-28T19:07:19.819Z,10.93
2022-12-28T19:12:18.009Z,15.43
2022-12-28T19:17:16.199Z,10.57
2022-12-28T19:22:17.153Z,29.48
2022-12-28T19:27:15.343Z,17.20
2022-12-28T19:32:13.501Z,14.07
2022-12-28T19:37:11.706Z,14.90
2022-12-28T19:42:11.247Z,11.50
2022-12-28T19:47:09.478Z,9.68
2022-12-28T19:52:07.677Z,21.13
2022-12-28T19:57:05.980Z,22.40
2022-12-28T20:02:05.712Z,14.02
2022-12-28T20:07:04.005Z,9.57
2022-12-28T20:12:02.188Z,20.42
2022-12-28T20:17:00.390Z,57.05
2022-12-28T20:21:59.936Z,11.18
2022-12-28T20:27:01.537Z,44.92
2022-12-28T20:32:00.235Z,12.43
2022-12-28T20:36:58.496Z,12.25
2022-12-28T20:42:15.742Z,26.05
2022-12-28T20:47:13.972Z,53.80
2022-12-28T20:52:12.460Z,20.20
2022-12-28T20:57:12.008Z,26.77
2022-12-28T21:02:10.747Z,22.30
2022-12-28T21:07:08.989Z,16.83
2022-12-28T21:12:07.211Z,10.70
2022-12-28T21:17:06.763Z,15.05
2022-12-28T21:22:04.986Z,14.57
2022-12-28T21:27:03.156Z,15.45
2022-12-28T21:32:01.374Z,16.08
2022-12-28T21:37:20.973Z,14.65
2022-12-28T21:42:19.112Z,10.65
2022-12-28T21:47:17.294Z,9.45
2022-12-28T21:52:17.968Z,7.57
2022-12-28T21:57:16.233Z,7.22
2022-12-28T22:02:33.261Z,6.80
2022-12-28T22:07:33.021Z,6.95
2022-12-28T22:12:37.788Z,8.30
2022-12-28T22:17:35.948Z,6.32
2022-12-28T22:22:35.576Z,11.90
2022-12-28T22:27:33.782Z,8.02
2022-12-28T22:32:32.064Z,10.55
2022-12-28T22:37:30.251Z,10.20
2022-12-28T22:42:30.133Z,8.48
2022-12-28T22:47:28.720Z,6.80
2022-12-28T22:52:26.901Z,7.93
2022-12-28T22:57:25.131Z,10.02
2022-12-28T23:02:24.855Z,7.68
2022-12-28T23:07:23.142Z,10.15
2022-12-28T23:12:21.995Z,8.23
2022-12-28T23:17:20.196Z,12.45
2022-12-28T23:22:38.069Z,10.30
2022-12-28T23:27:38.266Z,12.48
2022-12-28T23:32:36.441Z,10.40
2022-12-28T23:37:36.115Z,8.43
2022-12-28T23:42:36.011Z,13.85
2022-12-28T23:47:34.270Z,7.60
2022-12-28T23:52:32.661Z,8.18
2022-12-28T23:57:32.184Z,8.13
